CA-0005 weather

CLOSED RCAF Station Lincoln Park
Calgary, Alberta, Canada

Public forecast

Using degrees Celsius for public forecast. Weather courtesy of forecast.io.

METAR (pilot weather report)

Closest report is Calgary International Airport, 7.6 nm (14.0 km) NE. Retrieved 2019/06/27 11:00 UTC (24 minutes ago):

CYYC 271100Z 31008KT 300V030 5SM -SHRA BR FEW021 SCT053CB OVC071 12/10 A3001 RMK SC1CB3AC5 SC TR CB N MOVG N PRESFR SLP165 DENSITY ALT 4000FT

TAF (pilot weather forecast)

Closest forecast is Calgary International Airport, 7.6 nm (14.0 km) NE. Retrieved 2019/06/27 09:42 UTC (2 hours ago):

TAF CYYC 270838Z 2709/2806 36010KT P6SM SCT020 BKN060 OVC120 TEMPO 2709/2712 5SM -SHRA BR BKN020 OVC060 PROB40 2709/2712 3SM TSRA OVC020CB FM271200 03012KT 3SM -RA BR SCT008 OVC012 TEMPO 2712/2718 6SM -RA BR OVC025 PROB30 2712/2718 VRB15G25KT 2SM TSRA BR OVC008CB FM271800 08012KT P6SM -SHRA SCT020 OVC040 TEMPO 2718/2802 4SM -SHRA BR OVC020 PROB40 2718/2802 VRB15G25KT 2SM TSRA OVC020CB FM280200 16008KT P6SM SCT030 RMK NXT FCST BY 271200Z